createdAt,value
2018-04-14T00:02:04.569Z,32.00
2018-04-14T00:04:43.376Z,33.93
2018-04-14T00:07:17.294Z,36.47
2018-04-14T00:09:50.952Z,35.20
2018-04-14T00:12:25.391Z,37.97
2018-04-14T00:14:59.056Z,36.60
2018-04-14T00:17:33.676Z,38.97
2018-04-14T00:20:07.927Z,39.40
2018-04-14T00:22:42.593Z,38.20
2018-04-14T00:25:16.272Z,42.13
2018-04-14T00:27:49.948Z,43.27
2018-04-14T00:30:24.616Z,38.83
2018-04-14T00:32:59.292Z,39.83
2018-04-14T00:35:32.947Z,41.73
2018-04-14T00:38:06.609Z,41.47
2018-04-14T00:40:41.256Z,43.50
2018-04-14T00:43:15.873Z,41.90
2018-04-14T00:45:49.535Z,42.60
2018-04-14T00:48:24.936Z,44.50
2018-04-14T00:50:59.340Z,40.90
2018-04-14T00:53:44.092Z,43.07
2018-04-14T00:56:18.500Z,41.07
2018-04-14T00:58:53.095Z,40.03
2018-04-14T01:01:27.521Z,40.87
2018-04-14T01:04:02.160Z,40.53
2018-04-14T01:06:36.788Z,40.00
2018-04-14T01:09:10.460Z,43.10
2018-04-14T01:11:45.807Z,43.67
2018-04-14T01:14:21.203Z,43.87
2018-04-14T01:16:54.869Z,42.77
2018-04-14T01:19:28.316Z,43.23
2018-04-14T01:22:02.721Z,43.67
2018-04-14T01:24:36.172Z,43.03
2018-04-14T01:27:09.829Z,41.67
2018-04-14T01:29:43.497Z,42.60
2018-04-14T01:32:17.156Z,42.77
2018-04-14T01:34:52.517Z,37.93
2018-04-14T01:37:26.172Z,38.57
2018-04-14T01:39:59.853Z,38.43
2018-04-14T01:42:33.295Z,39.40
2018-04-14T01:45:08.717Z,35.27
2018-04-14T01:47:43.369Z,36.07
2018-04-14T01:50:17.807Z,37.67
2018-04-14T01:52:51.481Z,37.50
2018-04-14T01:55:36.245Z,37.73
2018-04-14T01:58:10.679Z,37.23
2018-04-14T02:00:44.343Z,35.67
2018-04-14T02:03:19.000Z,37.23
2018-04-14T02:05:52.670Z,36.53
2018-04-14T02:08:26.334Z,38.90
2018-04-14T02:10:59.997Z,37.53
2018-04-14T02:13:34.427Z,39.07
2018-04-14T02:16:08.094Z,38.80
2018-04-14T02:18:42.767Z,36.87
2018-04-14T02:21:17.411Z,38.93
2018-04-14T02:23:51.080Z,42.67
2018-04-14T02:26:24.752Z,42.63
2018-04-14T02:29:00.141Z,41.10
2018-04-14T02:31:34.769Z,41.10
2018-04-14T02:34:08.424Z,43.13
2018-04-14T02:36:43.847Z,44.67
2018-04-14T02:39:17.175Z,41.80
2018-04-14T02:41:50.775Z,45.07
2018-04-14T02:44:25.410Z,40.67
2018-04-14T02:46:59.273Z,42.60
2018-04-14T02:49:32.945Z,46.23
2018-04-14T02:52:07.531Z,44.73
2018-04-14T02:54:41.199Z,47.47
2018-04-14T02:57:14.872Z,47.90
2018-04-14T02:59:48.541Z,51.80
2018-04-14T03:02:23.717Z,49.13
2018-04-14T03:04:58.380Z,50.80
2018-04-14T03:07:32.807Z,52.33
2018-04-14T03:10:07.431Z,47.23
2018-04-14T03:12:42.081Z,47.30
2018-04-14T03:15:16.679Z,43.90
2018-04-14T03:17:50.355Z,43.23
2018-04-14T03:20:24.008Z,40.30
2018-04-14T03:22:58.855Z,37.43
2018-04-14T03:25:32.303Z,35.43
2018-04-14T03:28:07.775Z,38.97
2018-04-14T03:30:42.420Z,38.37
2018-04-14T03:33:17.104Z,38.00
2018-04-14T03:35:50.768Z,44.10
2018-04-14T03:38:24.448Z,47.07
2018-04-14T03:40:58.108Z,48.47
2018-04-14T03:43:32.758Z,45.67
2018-04-14T03:46:08.226Z,51.30
2018-04-14T03:48:41.890Z,50.97
2018-04-14T03:51:15.563Z,50.80
2018-04-14T03:53:50.932Z,53.00
2018-04-14T03:56:25.512Z,51.13
2018-04-14T03:58:59.940Z,46.17
2018-04-14T04:01:34.380Z,50.47
2018-04-14T04:04:09.038Z,45.20
2018-04-14T04:06:43.683Z,42.53
2018-04-14T04:09:18.345Z,38.77
2018-04-14T04:11:52.002Z,43.93
2018-04-14T04:14:26.642Z,47.77
2018-04-14T04:17:01.241Z,44.40
2018-04-14T04:19:45.939Z,40.13
2018-04-14T04:22:31.500Z,37.80
2018-04-14T04:28:11.725Z,40.57
2018-04-14T04:30:46.480Z,43.43
2018-04-14T04:33:21.109Z,39.03
2018-04-14T04:35:56.895Z,43.40
2018-04-14T04:38:32.315Z,49.27
2018-04-14T04:41:05.682Z,48.67
2018-04-14T04:43:40.325Z,50.07
2018-04-14T04:46:15.362Z,47.43
2018-04-14T04:48:49.990Z,47.03
2018-04-14T04:51:24.762Z,50.07
2018-04-14T04:53:58.451Z,53.53
2018-04-14T04:56:32.142Z,56.63
2018-04-14T04:59:06.573Z,53.07
2018-04-14T05:01:41.218Z,57.90
2018-04-14T05:04:14.880Z,48.67
2018-04-14T05:06:49.571Z,45.37
2018-04-14T05:09:27.702Z,45.00
2018-04-14T05:12:02.240Z,39.67
2018-04-14T05:14:36.828Z,41.77
2018-04-14T05:17:10.535Z,43.23
2018-04-14T05:19:45.568Z,51.20
2018-04-14T05:22:20.225Z,61.43
2018-04-14T05:24:54.825Z,63.97
2018-04-14T05:27:28.285Z,64.77
2018-04-14T05:30:01.953Z,57.10
2018-04-14T05:32:35.628Z,67.13
2018-04-14T05:35:10.293Z,72.77
2018-04-14T05:37:43.974Z,73.20
2018-04-14T05:40:18.309Z,78.03
2018-04-14T05:42:52.269Z,77.80
2018-04-14T05:45:26.884Z,74.13
2018-04-14T05:48:00.573Z,68.80
2018-04-14T05:50:35.178Z,70.33
2018-04-14T05:53:08.856Z,67.47
2018-04-14T05:55:43.473Z,66.93
2018-04-14T05:58:17.160Z,61.87
2018-04-14T06:00:52.585Z,64.73
2018-04-14T06:03:26.258Z,67.50
2018-04-14T06:05:59.932Z,67.50
2018-04-14T06:08:34.571Z,67.53
2018-04-14T06:11:08.247Z,69.60
2018-04-14T06:13:41.964Z,72.10
2018-04-14T06:16:16.626Z,66.90
2018-04-14T06:18:50.296Z,69.50
2018-04-14T06:21:23.966Z,67.27
2018-04-14T06:23:57.644Z,71.00
2018-04-14T06:26:32.292Z,68.17
2018-04-14T06:29:05.981Z,71.53
2018-04-14T06:31:41.395Z,72.33
2018-04-14T06:34:15.071Z,71.00
2018-04-14T06:36:48.735Z,67.73
2018-04-14T06:39:24.152Z,72.40
2018-04-14T06:41:58.590Z,68.87
2018-04-14T06:44:33.035Z,71.80
2018-04-14T06:47:06.487Z,73.73
2018-04-14T06:49:41.140Z,71.23
2018-04-14T06:52:14.876Z,74.77
2018-04-14T06:54:48.543Z,76.80
2018-04-14T06:57:22.208Z,73.70
2018-04-14T06:59:58.659Z,68.53
2018-04-14T07:02:34.797Z,68.83
2018-04-14T07:05:08.584Z,68.83
2018-04-14T07:07:42.045Z,66.33
2018-04-14T07:10:15.526Z,68.13
2018-04-14T07:12:49.231Z,67.40
2018-04-14T07:15:23.987Z,68.90
2018-04-14T07:17:58.638Z,64.40
2018-04-14T07:20:33.311Z,69.80
2018-04-14T07:23:07.780Z,68.80
2018-04-14T07:25:41.496Z,66.03
2018-04-14T07:28:15.172Z,68.60
2018-04-14T07:30:48.879Z,67.23
2018-04-14T07:33:24.351Z,62.00
2018-04-14T07:36:04.745Z,61.03
2018-04-14T07:38:39.444Z,65.93
2018-04-14T07:41:18.663Z,63.43
2018-04-14T07:43:56.096Z,64.73
2018-04-14T07:46:30.942Z,65.53
2018-04-14T07:49:04.612Z,69.33
2018-04-14T07:51:39.471Z,65.03
2018-04-14T07:54:14.124Z,67.00
2018-04-14T07:56:48.764Z,64.33
2018-04-14T07:59:23.352Z,62.43
2018-04-14T08:01:57.204Z,67.77
2018-04-14T08:04:31.444Z,61.83
2018-04-14T08:07:05.883Z,59.10
2018-04-14T08:12:43.334Z,54.70
2018-04-14T08:17:59.052Z,53.83
2018-04-14T08:20:33.704Z,51.30
2018-04-14T08:23:08.141Z,51.87
2018-04-14T08:25:41.809Z,51.20
2018-04-14T08:28:16.453Z,52.27
2018-04-14T08:30:51.389Z,55.53
2018-04-14T08:33:25.097Z,53.10
2018-04-14T08:35:58.769Z,56.27
2018-04-14T08:38:32.460Z,54.80
2018-04-14T08:41:06.809Z,54.40
2018-04-14T08:43:41.445Z,57.13
2018-04-14T08:46:15.755Z,55.00
2018-04-14T08:48:49.440Z,53.10
2018-04-14T08:51:24.807Z,51.10
2018-04-14T08:53:59.415Z,50.87
2018-04-14T08:56:33.275Z,45.30
2018-04-14T08:59:06.949Z,48.27
2018-04-14T09:01:41.546Z,45.87
2018-04-14T09:04:15.287Z,45.33
2018-04-14T09:06:48.980Z,42.07
2018-04-14T09:09:23.577Z,37.80
2018-04-14T09:11:58.216Z,22.07
2018-04-14T09:14:31.904Z,23.37
2018-04-14T09:17:06.501Z,21.77
2018-04-14T09:19:41.914Z,19.23
2018-04-14T09:22:15.658Z,17.20
2018-04-14T09:24:51.093Z,17.03
2018-04-14T09:27:24.763Z,16.93
2018-04-14T09:29:58.441Z,17.40
2018-04-14T09:32:33.091Z,19.33
2018-04-14T09:35:07.753Z,20.43
2018-04-14T09:37:42.107Z,19.47
2018-04-14T09:40:15.785Z,22.20
2018-04-14T09:42:52.181Z,22.03
2018-04-14T09:48:08.150Z,22.43
2018-04-14T09:53:37.611Z,21.57
2018-04-14T09:56:16.617Z,20.60
2018-04-14T09:58:58.247Z,18.60
2018-04-14T10:01:38.647Z,18.27
2018-04-14T10:04:12.912Z,18.90
2018-04-14T10:06:48.537Z,18.83
2018-04-14T10:09:28.243Z,17.50
2018-04-14T10:14:53.592Z,16.77
2018-04-14T10:17:37.584Z,15.90
2018-04-14T10:20:15.739Z,15.77
2018-04-14T10:22:56.199Z,16.10
2018-04-14T10:25:34.464Z,15.87
2018-04-14T10:28:10.214Z,15.40
2018-04-14T10:30:46.085Z,15.50
2018-04-14T10:33:28.808Z,14.63
2018-04-14T10:36:04.032Z,14.47
2018-04-14T10:38:39.656Z,15.07
2018-04-14T10:41:19.225Z,13.10
2018-04-14T10:43:55.636Z,14.50
2018-04-14T10:46:34.263Z,12.53
2018-04-14T10:49:09.886Z,11.13
2018-04-14T10:51:44.920Z,11.00
2018-04-14T10:54:19.604Z,11.13
2018-04-14T10:57:02.949Z,9.90
2018-04-14T10:59:37.807Z,8.83
2018-04-14T11:02:20.276Z,9.40
2018-04-14T11:05:08.964Z,8.57
2018-04-14T11:07:50.125Z,8.13
2018-04-14T11:13:06.669Z,7.57
2018-04-14T11:15:47.239Z,7.73
2018-04-14T11:21:20.150Z,8.10
2018-04-14T11:26:47.696Z,7.60
2018-04-14T11:29:28.066Z,6.93
2018-04-14T11:32:04.640Z,6.37
2018-04-14T11:37:34.994Z,7.20
2018-04-14T11:40:10.878Z,6.07
2018-04-14T11:42:44.564Z,5.87
2018-04-14T11:45:18.995Z,6.43
2018-04-14T11:47:54.040Z,5.50
2018-04-14T11:50:27.709Z,5.13
2018-04-14T11:53:02.361Z,6.30
2018-04-14T11:55:36.075Z,6.10
2018-04-14T11:58:10.721Z,5.70
2018-04-14T12:00:45.424Z,4.87
2018-04-14T12:03:19.101Z,5.67
2018-04-14T12:05:52.800Z,4.80
2018-04-14T12:08:27.457Z,6.10
2018-04-14T12:16:28.168Z,7.33
2018-04-14T12:19:08.641Z,8.37
2018-04-14T12:21:45.863Z,7.80
2018-04-14T12:24:36.653Z,8.20
2018-04-14T12:27:21.451Z,18.03
2018-04-14T12:33:09.246Z,7.80
2018-04-14T12:36:18.851Z,7.77
2018-04-14T12:41:57.879Z,7.53
2018-04-14T12:44:50.530Z,6.47
2018-04-14T12:50:18.434Z,5.83
2018-04-14T12:52:52.102Z,4.90
2018-04-14T12:55:26.840Z,5.83
2018-04-14T12:58:00.525Z,5.70
2018-04-14T13:00:34.192Z,6.27
2018-04-14T13:03:10.074Z,6.63
2018-04-14T13:05:46.999Z,6.13
2018-04-14T13:08:21.970Z,5.33
2018-04-14T13:10:59.317Z,5.60
2018-04-14T13:13:41.645Z,5.37
2018-04-14T13:16:16.087Z,6.40
2018-04-14T13:18:49.752Z,5.13
2018-04-14T13:21:24.413Z,5.40
2018-04-14T13:23:58.072Z,5.57
2018-04-14T13:26:32.750Z,5.07
2018-04-14T13:31:48.315Z,5.60
2018-04-14T13:34:22.495Z,5.00
2018-04-14T13:36:57.123Z,5.40
2018-04-14T13:39:31.761Z,5.57
2018-04-14T13:42:06.352Z,6.30
2018-04-14T13:44:45.625Z,5.77
2018-04-14T13:47:19.468Z,5.87
2018-04-14T13:49:54.109Z,5.53
2018-04-14T13:52:28.874Z,6.03
2018-04-14T13:55:12.169Z,5.73
2018-04-14T13:57:48.896Z,4.80
2018-04-14T14:00:23.165Z,4.50
2018-04-14T14:05:45.616Z,4.93
2018-04-14T14:08:23.229Z,5.30
2018-04-14T14:11:00.347Z,6.47
2018-04-14T14:13:43.442Z,6.00
2018-04-14T14:16:20.393Z,7.97
2018-04-14T14:18:54.071Z,4.23
2018-04-14T14:21:28.658Z,4.30
2018-04-14T14:24:07.214Z,4.83
2018-04-14T14:26:41.828Z,3.63
2018-04-14T14:29:16.522Z,4.27
2018-04-14T14:31:52.242Z,5.00
2018-04-14T14:34:25.904Z,3.90
2018-04-14T14:37:00.553Z,4.10
2018-04-14T14:39:34.215Z,4.07
2018-04-14T14:42:07.876Z,4.37
2018-04-14T14:47:27.998Z,5.17
2018-04-14T14:50:18.884Z,4.53
2018-04-14T14:52:52.759Z,4.70
